Terminal Aerodrome Forecast
Issued by NWS

Home | Current Version | Previous Version | Text Only | Print | Product List | Glossary On
Versions: 1 2 3 4 5 6 7 8 9 10 11 12 13 14 15 16
000
FTUS41 KBTV 220200 AAA
TAFSLK
TAF AMD
KSLK 220212Z 2202/2224 07006KT P6SM VCSH SCT004 OVC050
      TEMPO 2202/2206 4SM BR OVC004
     FM220600 VRB03KT 2SM BR OVC004
     FM221300 11006KT P6SM VCSH BKN025=

USA.gov is the U.S. government's official web portal to all federal, state and local government web resources and services.